Time;durP1;ratioP1;P1;durP2;ratioP2;P2;SDS_P1;SDS_P2;PMS_P1;PMS_P2;Temp;Humidity;BMP_temperature;BMP_pressure;BME280_temperature;BME280_humidity;BME280_pressure;Samples;Min_cycle;Max_cycle;Signal;HPM_P1;HPM_P2
2024/01/15 00:02:09;;;;;;;12.60;1.90;;;;;;;1.01;100.00;98781.63;4979230;28;20177;-45
2024/01/15 00:04:38;;;;;;;8.23;1.67;;;;;;;0.98;100.00;98779.06;4980651;28;20209;-46
2024/01/15 00:07:04;;;;;;;9.20;1.50;;;;;;;1.05;100.00;98775.34;4973652;28;20198;-43
2024/01/15 00:09:30;;;;;;;15.88;1.50;;;;;;;0.81;100.00;98769.94;4975360;28;20264;-45
2024/01/15 00:11:55;;;;;;;7.72;1.38;;;;;;;0.82;100.00;98771.66;4972261;28;20280;-45
2024/01/15 00:14:21;;;;;;;9.20;1.77;;;;;;;0.75;100.00;98783.31;4982526;28;20214;-46
2024/01/15 00:16:48;;;;;;;11.52;1.63;;;;;;;0.58;100.00;98762.75;4975185;28;21025;-44
2024/01/15 00:19:14;;;;;;;10.05;1.60;;;;;;;0.31;100.00;98782.88;4975119;28;20557;-44
2024/01/15 00:21:39;;;;;;;6.07;1.00;;;;;;;0.32;100.00;98757.41;4979596;28;20198;-45
2024/01/15 00:24:05;;;;;;;8.68;1.15;;;;;;;0.31;100.00;98750.44;4975533;28;20260;-42
2024/01/15 00:26:30;;;;;;;9.55;1.05;;;;;;;0.44;100.00;98740.34;4978531;28;20198;-44
2024/01/15 00:28:56;;;;;;;8.25;0.88;;;;;;;0.33;100.00;98738.94;4971608;28;20196;-44
2024/01/15 00:31:21;;;;;;;0.93;0.38;;;;;;;0.28;100.00;98732.91;4985498;28;20210;-44
2024/01/15 00:33:47;;;;;;;4.85;0.68;;;;;;;0.28;100.00;98725.03;4973167;28;20202;-46
2024/01/15 00:36:14;;;;;;;6.13;0.75;;;;;;;0.29;100.00;98720.63;4977301;28;20288;-46
2024/01/15 00:38:39;;;;;;;5.97;0.93;;;;;;;0.33;100.00;98717.88;4980246;28;20194;-44
2024/01/15 00:41:05;;;;;;;6.55;1.23;;;;;;;0.42;100.00;98719.34;4976365;28;20548;-45
2024/01/15 00:43:31;;;;;;;9.23;1.35;;;;;;;0.51;100.00;98707.66;4978132;28;20372;-45
2024/01/15 00:45:56;;;;;;;4.32;1.40;;;;;;;0.48;100.00;98711.25;4976256;28;20206;-44
2024/01/15 00:48:22;;;;;;;2.72;1.17;;;;;;;0.63;100.00;98711.66;4975111;28;20189;-43
2024/01/15 00:50:47;;;;;;;8.10;1.20;;;;;;;0.66;100.00;98709.81;4976681;28;20194;-43
2024/01/15 00:53:13;;;;;;;13.70;1.80;;;;;;;0.69;100.00;98709.69;4976692;28;20322;-45
2024/01/15 00:55:38;;;;;;;13.52;1.65;;;;;;;0.71;100.00;98713.16;4974697;28;20700;-44
2024/01/15 00:58:04;;;;;;;7.43;1.73;;;;;;;0.73;100.00;98710.47;4976820;28;20582;-46
2024/01/15 01:00:29;;;;;;;8.30;1.92;;;;;;;0.74;100.00;98712.19;4977327;28;20177;-43
2024/01/15 01:02:55;;;;;;;9.77;2.78;;;;;;;0.74;100.00;98709.53;4978260;28;20217;-44
2024/01/15 01:05:20;;;;;;;17.05;2.28;;;;;;;0.87;100.00;98713.50;4975716;28;20209;-45
2024/01/15 01:07:46;;;;;;;8.00;1.38;;;;;;;0.78;100.00;98709.38;4984770;28;20238;-44
2024/01/15 01:10:11;;;;;;;19.20;2.42;;;;;;;0.93;100.00;98707.19;4973805;28;20244;-45
2024/01/15 01:12:37;;;;;;;18.30;2.70;;;;;;;0.86;100.00;98708.31;4980097;28;20210;-44
2024/01/15 01:15:02;;;;;;;16.85;2.00;;;;;;;0.86;100.00;98713.56;4976064;28;20209;-43
2024/01/15 01:17:28;;;;;;;14.82;2.38;;;;;;;0.87;100.00;98697.69;4982888;28;20188;-45
2024/01/15 01:19:53;;;;;;;24.25;3.00;;;;;;;0.86;100.00;98705.66;4981049;28;20224;-45
2024/01/15 01:22:19;;;;;;;23.13;3.30;;;;;;;0.95;100.00;98715.91;4979912;28;20216;-44
2024/01/15 01:24:44;;;;;;;17.42;2.35;;;;;;;0.97;100.00;98706.16;4981965;28;20205;-43
2024/01/15 01:27:10;;;;;;;19.40;2.60;;;;;;;1.00;100.00;98708.69;4981215;28;20215;-44
2024/01/15 01:29:35;;;;;;;20.10;2.75;;;;;;;0.97;100.00;98719.34;4978711;28;20194;-44
2024/01/15 01:32:01;;;;;;;14.60;3.08;;;;;;;0.97;100.00;98714.94;4984857;28;20300;-43
2024/01/15 01:34:26;;;;;;;14.35;2.85;;;;;;;1.05;100.00;98716.44;4980859;28;20209;-45
2024/01/15 01:36:52;;;;;;;10.45;1.65;;;;;;;1.04;100.00;98720.84;4986306;28;20681;-43
2024/01/15 01:39:17;;;;;;;21.77;3.08;;;;;;;1.03;100.00;98708.59;4984965;28;20189;-45
2024/01/15 01:41:43;;;;;;;16.52;2.60;;;;;;;0.93;100.00;98715.94;4978987;28;20192;-46
2024/01/15 01:44:08;;;;;;;18.45;3.15;;;;;;;0.88;100.00;98714.38;4982998;28;20178;-45
2024/01/15 01:46:39;;;;;;;17.70;3.33;;;;;;;0.96;100.00;98694.75;4981272;28;20743;-45
2024/01/15 01:49:06;;;;;;;11.75;2.35;;;;;;;0.95;100.00;98710.63;4979916;28;20190;-46
2024/01/15 01:51:34;;;;;;;17.55;2.47;;;;;;;0.88;100.00;98696.78;4983593;28;20186;-45
2024/01/15 01:54:00;;;;;;;17.58;2.55;;;;;;;0.90;100.00;98700.25;4982149;28;20190;-45
2024/01/15 01:56:26;;;;;;;12.80;2.30;;;;;;;0.93;100.00;98702.75;4984650;28;20189;-44
2024/01/15 01:58:52;;;;;;;20.55;2.95;;;;;;;0.98;100.00;98702.59;4982044;28;20253;-44
2024/01/15 02:01:18;;;;;;;14.25;2.28;;;;;;;0.98;100.00;98686.78;4976959;28;20182;-46
2024/01/15 02:03:44;;;;;;;18.17;2.63;;;;;;;0.87;100.00;98687.13;4983744;28;20244;-45
2024/01/15 02:06:09;;;;;;;12.32;2.40;;;;;;;0.92;100.00;98695.78;4981044;28;20217;-44
2024/01/15 02:08:36;;;;;;;13.50;2.70;;;;;;;0.82;100.00;98699.63;4981327;28;20208;-46
2024/01/15 02:11:01;;;;;;;11.27;1.95;;;;;;;0.88;100.00;98685.38;4975322;28;20288;-46
2024/01/15 02:13:27;;;;;;;14.45;3.03;;;;;;;0.85;100.00;98675.78;4980451;28;20272;-45
2024/01/15 02:15:52;;;;;;;12.45;2.33;;;;;;;0.76;100.00;98687.50;4984673;28;20194;-43
2024/01/15 02:18:18;;;;;;;10.48;2.03;;;;;;;0.82;100.00;98679.38;4982426;28;20184;-46
2024/01/15 02:20:44;;;;;;;18.73;2.40;;;;;;;0.82;100.00;98679.38;4979657;28;20209;-45
2024/01/15 02:23:10;;;;;;;17.98;2.50;;;;;;;0.76;100.00;98671.69;4980551;28;20178;-46
2024/01/15 02:25:40;;;;;;;18.35;2.85;;;;;;;0.75;100.00;98667.34;4981839;28;20202;-44
2024/01/15 02:28:09;;;;;;;18.55;2.72;;;;;;;0.75;100.00;98669.13;4985826;28;20638;-46
2024/01/15 02:30:39;;;;;;;15.80;2.30;;;;;;;0.80;100.00;98654.84;4979782;28;20177;-45
2024/01/15 02:33:05;;;;;;;20.35;2.70;;;;;;;0.65;100.00;98660.63;4982110;28;20612;-46
2024/01/15 02:35:30;;;;;;;18.75;2.20;;;;;;;0.64;100.00;98661.56;4982818;28;20836;-46
2024/01/15 02:37:56;;;;;;;12.25;2.40;;;;;;;0.70;100.00;98652.56;4984422;28;20180;-47
2024/01/15 02:40:21;;;;;;;10.77;2.03;;;;;;;0.72;100.00;98662.19;4980058;28;20630;-46
2024/01/15 02:42:47;;;;;;;14.02;2.28;;;;;;;0.71;100.00;98651.69;4980454;28;20211;-45
2024/01/15 02:45:12;;;;;;;10.93;2.47;;;;;;;0.82;100.00;98654.81;4978167;28;20294;-44
2024/01/15 02:47:38;;;;;;;9.57;1.70;;;;;;;0.86;100.00;98652.94;4983170;28;20204;-47
2024/01/15 02:50:04;;;;;;;11.40;2.65;;;;;;;0.86;100.00;98650.31;4979553;28;20248;-46
2024/01/15 02:52:29;;;;;;;12.63;2.08;;;;;;;0.85;100.00;98635.38;4981294;28;20289;-44
2024/01/15 02:54:55;;;;;;;13.00;2.72;;;;;;;0.97;100.00;98651.66;4980745;28;20695;-45
2024/01/15 02:57:20;;;;;;;14.57;2.17;;;;;;;0.91;100.00;98661.56;4984463;28;20253;-46
2024/01/15 02:59:46;;;;;;;11.68;2.63;;;;;;;0.75;100.00;98666.47;4978740;28;20260;-45
2024/01/15 03:02:11;;;;;;;8.32;1.92;;;;;;;0.89;100.00;98682.69;4980678;28;20225;-46
2024/01/15 03:04:37;;;;;;;13.25;1.90;;;;;;;0.76;100.00;98703.31;4980094;28;20212;-46
2024/01/15 03:07:02;;;;;;;12.18;2.78;;;;;;;0.76;100.00;98694.53;4980645;28;20174;-45
2024/01/15 03:09:28;;;;;;;13.85;2.72;;;;;;;0.76;100.00;98705.09;4983939;28;20740;-45
2024/01/15 03:11:53;;;;;;;10.40;1.85;;;;;;;0.78;100.00;98695.34;4980131;28;20732;-46
2024/01/15 03:14:20;;;;;;;20.60;2.65;;;;;;;0.80;100.00;98696.16;4981342;28;20697;-46
2024/01/15 03:16:45;;;;;;;15.43;2.55;;;;;;;0.76;100.00;98716.47;4980570;28;20182;-45
2024/01/15 03:19:11;;;;;;;10.57;1.92;;;;;;;0.70;100.00;98716.72;4979799;28;20181;-46
2024/01/15 03:21:36;;;;;;;11.60;2.17;;;;;;;0.70;100.00;98715.81;4978671;28;20174;-47
2024/01/15 03:24:02;;;;;;;11.25;2.20;;;;;;;0.63;100.00;98715.16;4979616;28;20269;-47
2024/01/15 03:26:27;;;;;;;8.55;1.73;;;;;;;0.57;100.00;98720.66;4982218;28;20284;-46
2024/01/15 03:28:53;;;;;;;11.52;1.73;;;;;;;0.52;100.00;98717.28;4981746;28;20542;-47
2024/01/15 03:31:18;;;;;;;12.20;2.00;;;;;;;0.42;100.00;98722.00;4980653;28;20280;-44
2024/01/15 03:33:44;;;;;;;13.30;2.28;;;;;;;0.38;100.00;98726.47;4976760;28;20631;-46
2024/01/15 03:36:09;;;;;;;11.52;2.10;;;;;;;0.32;100.00;98729.28;4980121;28;20197;-46
2024/01/15 03:38:41;;;;;;;15.30;2.20;;;;;;;0.37;100.00;98727.41;4981012;28;20193;-46
2024/01/15 03:41:06;;;;;;;11.52;2.47;;;;;;;0.38;100.00;98731.75;4978171;28;20616;-45
2024/01/15 03:43:32;;;;;;;9.40;2.10;;;;;;;0.47;100.00;98735.88;4977251;28;20178;-46
2024/01/15 03:45:57;;;;;;;14.00;2.28;;;;;;;0.50;100.00;98740.16;4981989;28;20198;-44
2024/01/15 03:48:23;;;;;;;8.18;1.98;;;;;;;0.57;100.00;98742.59;4982160;28;20178;-46
2024/01/15 03:50:48;;;;;;;16.55;2.88;;;;;;;0.64;100.00;98735.34;4981258;28;20188;-45
2024/01/15 03:53:13;;;;;;;10.77;2.13;;;;;;;0.63;100.00;98736.25;4976492;28;20214;-47
2024/01/15 03:55:39;;;;;;;17.00;2.85;;;;;;;0.68;100.00;98736.97;4975033;28;20206;-46
2024/01/15 03:58:04;;;;;;;12.48;2.17;;;;;;;0.68;100.00;98725.56;4980227;28;21192;-46
2024/01/15 04:00:30;;;;;;;15.30;1.98;;;;;;;0.75;100.00;98742.91;4978122;28;20268;-46
2024/01/15 04:02:55;;;;;;;19.10;2.42;;;;;;;0.77;100.00;98736.69;4976260;28;20603;-46
2024/01/15 04:05:21;;;;;;;12.50;2.50;;;;;;;0.80;100.00;98739.19;4979467;28;20290;-45
2024/01/15 04:07:46;;;;;;;13.48;2.20;;;;;;;0.76;100.00;98737.56;4982950;28;20983;-46
2024/01/15 04:10:12;;;;;;;15.23;2.33;;;;;;;0.72;100.00;98733.34;4976358;28;20268;-45
2024/01/15 04:12:37;;;;;;;14.23;2.67;;;;;;;0.67;100.00;98740.50;4977809;28;20221;-44
2024/01/15 04:15:03;;;;;;;12.70;1.92;;;;;;;0.74;100.00;98741.16;4976482;28;20250;-44
2024/01/15 04:17:29;;;;;;;9.30;1.90;;;;;;;0.74;100.00;98733.25;4977493;28;20182;-46
2024/01/15 04:19:55;;;;;;;10.45;2.25;;;;;;;0.78;100.00;98733.13;4978007;28;20185;-45
2024/01/15 04:22:20;;;;;;;9.50;1.50;;;;;;;0.78;100.00;98735.75;4976750;28;20192;-44
2024/01/15 04:24:46;;;;;;;13.18;1.88;;;;;;;0.84;100.00;98744.41;4979660;28;20193;-44
2024/01/15 04:27:11;;;;;;;8.95;1.73;;;;;;;0.76;100.00;98736.72;4977998;28;20194;-46
2024/01/15 04:29:40;;;;;;;5.63;1.20;;;;;;;0.72;100.00;98725.44;4984078;28;20177;-45
2024/01/15 04:32:06;;;;;;;9.55;1.30;;;;;;;0.71;100.00;98734.22;4975972;28;20363;-45
2024/01/15 04:34:31;;;;;;;10.13;1.48;;;;;;;0.74;100.00;98734.13;4974448;28;20319;-44
2024/01/15 04:36:57;;;;;;;11.15;1.67;;;;;;;0.72;100.00;98740.34;4972330;28;20174;-45
2024/01/15 04:39:22;;;;;;;11.88;2.63;;;;;;;0.71;100.00;98736.88;4977175;28;20657;-45
2024/01/15 04:41:48;;;;;;;7.43;1.20;;;;;;;0.81;100.00;98735.66;4974121;28;20268;-45
2024/01/15 04:44:13;;;;;;;5.53;1.23;;;;;;;0.74;100.00;98736.75;4982636;28;20220;-44
2024/01/15 04:46:39;;;;;;;9.77;2.15;;;;;;;0.74;100.00;98733.25;4974442;28;20192;-45
2024/01/15 04:49:04;;;;;;;7.28;1.30;;;;;;;0.74;100.00;98733.25;4977866;28;20190;-45
2024/01/15 04:51:30;;;;;;;10.73;1.80;;;;;;;0.75;100.00;98732.38;4975565;28;20656;-43
2024/01/15 04:53:55;;;;;;;8.45;1.25;;;;;;;0.81;100.00;98735.66;4974285;28;20217;-45
2024/01/15 04:56:21;;;;;;;8.63;1.35;;;;;;;0.87;100.00;98736.38;4982272;28;20200;-45
2024/01/15 04:58:46;;;;;;;8.13;1.40;;;;;;;0.79;100.00;98740.13;4982894;28;20554;-45
2024/01/15 05:01:12;;;;;;;5.22;1.42;;;;;;;0.75;100.00;98740.28;4975499;28;20219;-46
2024/01/15 05:03:37;;;;;;;4.22;0.82;;;;;;;0.68;100.00;98742.25;4977227;28;20185;-45
2024/01/15 05:06:03;;;;;;;4.90;1.42;;;;;;;0.67;100.00;98744.91;4988224;28;20295;-46
2024/01/15 05:08:29;;;;;;;7.10;1.70;;;;;;;0.77;100.00;98738.47;4979843;28;20180;-46
2024/01/15 05:10:54;;;;;;;10.02;1.98;;;;;;;0.70;100.00;98734.28;4980244;28;20662;-46
2024/01/15 05:13:20;;;;;;;3.53;1.20;;;;;;;0.70;100.00;98743.06;4978624;28;20281;-45
2024/01/15 05:15:45;;;;;;;10.02;1.38;;;;;;;0.68;100.00;98747.53;4978053;28;20212;-46
2024/01/15 05:18:11;;;;;;;9.68;1.33;;;;;;;0.60;100.00;98752.16;4978985;28;20841;-46
2024/01/15 05:20:36;;;;;;;7.75;1.45;;;;;;;0.70;100.00;98753.59;4980335;28;20170;-44
2024/01/15 05:23:02;;;;;;;6.03;1.58;;;;;;;0.77;100.00;98741.09;4978425;28;20258;-45
2024/01/15 05:25:27;;;;;;;5.90;1.20;;;;;;;0.81;100.00;98748.84;4982686;28;20351;-45
2024/01/15 05:27:53;;;;;;;6.07;1.17;;;;;;;0.75;100.00;98745.56;4977253;28;20638;-43
2024/01/15 05:30:18;;;;;;;5.30;1.50;;;;;;;0.68;100.00;98744.00;4979212;28;20181;-46
2024/01/15 05:32:44;;;;;;;4.43;1.65;;;;;;;0.65;100.00;98741.47;4980362;28;20830;-45
2024/01/15 05:35:09;;;;;;;10.90;1.60;;;;;;;0.68;100.00;98747.53;4978022;28;20347;-45
2024/01/15 05:37:35;;;;;;;8.27;1.20;;;;;;;0.69;100.00;98749.22;4977229;28;20509;-45
2024/01/15 05:40:00;;;;;;;6.30;1.40;;;;;;;0.67;100.00;98758.97;4980369;28;20264;-44
2024/01/15 05:42:26;;;;;;;7.78;1.08;;;;;;;0.66;100.00;98757.25;4979052;28;20248;-44
2024/01/15 05:44:52;;;;;;;4.32;1.17;;;;;;;0.60;100.00;98767.97;4977992;28;20271;-43
2024/01/15 05:47:18;;;;;;;6.25;1.40;;;;;;;0.52;100.00;98775.25;4975421;28;20231;-47
2024/01/15 05:49:44;;;;;;;10.45;1.58;;;;;;;0.48;100.00;98773.59;4980672;28;20186;-46
2024/01/15 05:52:09;;;;;;;5.47;1.13;;;;;;;0.57;100.00;98770.72;4977327;28;20236;-46
2024/01/15 05:54:35;;;;;;;6.18;1.50;;;;;;;0.53;100.00;98766.44;4978856;28;20220;-46
2024/01/15 05:57:00;;;;;;;6.47;1.50;;;;;;;0.52;100.00;98769.97;4980372;28;20599;-45
2024/01/15 05:59:26;;;;;;;6.78;1.35;;;;;;;0.51;100.00;98769.13;4977608;28;20243;-46
2024/01/15 06:01:51;;;;;;;6.47;1.20;;;;;;;0.60;99.65;98765.34;4979332;28;20256;-46
2024/01/15 06:04:17;;;;;;;6.70;1.15;;;;;;;0.57;99.37;98757.53;4977988;28;20292;-46
2024/01/15 06:06:42;;;;;;;5.72;1.02;;;;;;;0.45;99.42;98768.44;4982366;28;20260;-46
2024/01/15 06:09:08;;;;;;;5.72;1.25;;;;;;;0.45;99.19;98768.44;4982671;28;20189;-46
2024/01/15 06:11:34;;;;;;;3.10;0.80;;;;;;;0.38;98.79;98776.53;4978710;28;20276;-45
2024/01/15 06:14:00;;;;;;;2.60;0.80;;;;;;;0.32;98.87;98768.78;4986505;28;20190;-47
2024/01/15 06:16:26;;;;;;;5.40;0.80;;;;;;;0.28;98.84;98774.22;4976253;28;20189;-45
2024/01/15 06:18:51;;;;;;;3.15;0.75;;;;;;;0.32;98.97;98778.47;4983610;28;20632;-46
2024/01/15 06:21:17;;;;;;;2.15;0.80;;;;;;;0.37;98.81;98787.09;4982334;28;20181;-45
2024/01/15 06:23:42;;;;;;;5.22;0.93;;;;;;;0.47;98.62;98779.78;4983214;28;20190;-45
2024/01/15 06:26:08;;;;;;;8.07;1.10;;;;;;;0.44;98.50;98777.22;4979786;28;20218;-47
2024/01/15 06:28:33;;;;;;;5.82;1.27;;;;;;;0.46;98.68;98780.69;4978684;28;20648;-46
2024/01/15 06:30:59;;;;;;;1.65;0.70;;;;;;;0.43;98.43;98783.44;4984717;28;20174;-47
2024/01/15 06:33:24;;;;;;;1.58;0.65;;;;;;;0.41;98.63;98794.00;4984849;28;20190;-46
2024/01/15 06:35:50;;;;;;;0.55;0.40;;;;;;;0.41;98.30;98786.97;4983196;28;20641;-45
2024/01/15 06:38:16;;;;;;;6.15;0.85;;;;;;;0.43;98.43;98781.66;4984111;28;20193;-44
2024/01/15 06:40:45;;;;;;;2.63;0.68;;;;;;;0.44;98.06;98790.41;4984534;28;20224;-45
2024/01/15 06:43:11;;;;;;;4.32;0.80;;;;;;;0.51;97.93;98779.66;4977331;28;20182;-46
2024/01/15 06:45:37;;;;;;;1.85;0.90;;;;;;;0.49;97.68;98783.25;4983386;28;20213;-46
2024/01/15 06:48:03;;;;;;;5.15;0.93;;;;;;;0.49;97.53;98783.25;4981034;28;20178;-44
2024/01/15 06:50:29;;;;;;;2.78;0.77;;;;;;;0.43;97.65;98786.06;4980684;28;20198;-45
2024/01/15 06:52:54;;;;;;;3.03;0.65;;;;;;;0.39;97.79;98780.91;4977355;28;20202;-46
2024/01/15 06:55:20;;;;;;;3.25;0.90;;;;;;;0.44;97.58;98793.03;4983171;28;20615;-45
2024/01/15 06:57:45;;;;;;;9.27;1.20;;;;;;;0.44;97.55;98790.41;4982658;28;20251;-44
2024/01/15 07:00:11;;;;;;;1.35;0.75;;;;;;;0.50;97.59;98803.41;4982300;28;20215;-44
2024/01/15 07:02:36;;;;;;;2.05;0.60;;;;;;;0.45;97.82;98815.88;4983672;28;20651;-48
2024/01/15 07:05:04;;;;;;;3.80;0.93;;;;;;;0.50;98.04;98809.53;4979311;28;20205;-46
2024/01/15 07:07:30;;;;;;;4.70;1.20;;;;;;;0.50;98.01;98811.31;4980598;28;20185;-44
2024/01/15 07:09:56;;;;;;;10.25;1.35;;;;;;;0.46;97.89;98828.09;4980241;28;20672;-44
2024/01/15 07:12:22;;;;;;;4.25;0.85;;;;;;;0.30;98.29;98820.66;4984047;28;20232;-46
2024/01/15 07:14:47;;;;;;;1.75;0.82;;;;;;;0.28;98.49;98835.63;4981066;28;20250;-46
2024/01/15 07:17:13;;;;;;;4.68;0.90;;;;;;;0.24;98.98;98843.66;4980176;28;20198;-46
2024/01/15 07:19:39;;;;;;;1.90;0.70;;;;;;;0.19;99.31;98849.06;4979660;28;20182;-44
2024/01/15 07:22:04;;;;;;;2.10;0.68;;;;;;;0.15;99.10;98850.06;4979076;28;20205;-46
2024/01/15 07:24:30;;;;;;;2.33;0.75;;;;;;;0.13;99.61;98854.50;4982625;28;20780;-47
2024/01/15 07:26:55;;;;;;;4.18;0.80;;;;;;;0.07;99.69;98859.97;4981365;28;20190;-45
2024/01/15 07:29:21;;;;;;;2.33;0.73;;;;;;;0.12;100.00;98853.66;4977455;28;20329;-43
2024/01/15 07:31:50;;;;;;;5.47;1.00;;;;;;;0.03;100.00;98866.22;4982345;28;20194;-46
2024/01/15 07:34:17;;;;;;;2.58;1.05;;;;;;;-0.02;100.00;98861.94;4984934;28;20304;-43
2024/01/15 07:36:44;;;;;;;1.40;0.63;;;;;;;0.01;100.00;98883.81;4978974;28;20185;-44
2024/01/15 07:39:10;;;;;;;11.75;1.67;;;;;;;0.03;100.00;98889.91;4978907;28;20254;-44
2024/01/15 07:41:35;;;;;;;5.40;0.90;;;;;;;-0.03;100.00;98878.63;4982998;28;20185;-46
2024/01/15 07:44:02;;;;;;;3.42;1.15;;;;;;;-0.05;100.00;98883.06;4983519;28;20182;-46
2024/01/15 07:46:27;;;;;;;2.65;1.02;;;;;;;-0.04;100.00;98884.81;4985425;28;20693;-46
2024/01/15 07:48:56;;;;;;;1.92;0.90;;;;;;;-0.14;100.00;98899.09;4977726;28;20560;-44
2024/01/15 07:51:22;;;;;;;7.50;1.00;;;;;;;-0.14;100.00;98903.50;4980533;28;20212;-46
2024/01/15 07:53:48;;;;;;;3.67;1.00;;;;;;;-0.24;100.00;98902.84;4983734;28;20209;-45
2024/01/15 07:56:13;;;;;;;7.82;1.00;;;;;;;-0.16;100.00;98914.06;4977765;28;20210;-45
2024/01/15 07:58:39;;;;;;;4.85;0.93;;;;;;;-0.14;100.00;98914.88;4978074;28;20177;-44
2024/01/15 08:01:04;;;;;;;4.55;0.93;;;;;;;-0.19;100.00;98918.56;4978687;28;20535;-45
2024/01/15 08:03:30;;;;;;;6.55;1.08;;;;;;;-0.19;100.00;98919.41;4982591;28;20532;-44
2024/01/15 08:05:57;;;;;;;7.35;3.30;;;;;;;-0.19;100.00;98929.94;4980242;28;20201;-46
2024/01/15 08:08:23;;;;;;;4.35;1.05;;;;;;;-0.24;100.00;98927.44;4978939;28;20186;-46
2024/01/15 08:10:49;;;;;;;4.88;1.25;;;;;;;-0.30;100.00;98932.84;4987017;28;20201;-45
2024/01/15 08:13:14;;;;;;;8.27;3.95;;;;;;;-0.30;100.00;98945.13;4981015;28;20236;-44
2024/01/15 08:15:41;;;;;;;2.75;1.50;;;;;;;-0.28;100.00;98940.69;4976762;28;20206;-46
2024/01/15 08:18:06;;;;;;;5.57;0.98;;;;;;;-0.24;100.00;98939.69;4979404;28;20272;-46
2024/01/15 08:20:32;;;;;;;3.63;0.80;;;;;;;-0.19;100.00;98935.22;4980088;28;20279;-46
2024/01/15 08:22:58;;;;;;;4.35;0.95;;;;;;;-0.26;100.00;98928.38;4980302;28;20595;-45
2024/01/15 08:25:23;;;;;;;6.50;0.90;;;;;;;-0.26;100.00;98934.50;4981211;28;20214;-44
2024/01/15 08:27:49;;;;;;;4.20;1.02;;;;;;;-0.28;100.00;98925.78;4978846;28;20208;-46
2024/01/15 08:30:15;;;;;;;5.28;1.00;;;;;;;-0.22;100.00;98940.53;4980135;28;20225;-47
2024/01/15 08:32:43;;;;;;;6.22;1.02;;;;;;;-0.32;99.96;98946.94;4979191;28;20779;-45
2024/01/15 08:35:09;;;;;;;1.92;0.40;;;;;;;-0.24;99.41;98952.84;4978757;28;20311;-44
2024/01/15 08:37:34;;;;;;;2.35;0.73;;;;;;;-0.28;98.99;98948.59;4977307;28;20325;-45
2024/01/15 08:40:00;;;;;;;3.35;0.75;;;;;;;-0.23;98.79;98959.88;4981250;28;20209;-45
2024/01/15 08:42:25;;;;;;;2.75;0.50;;;;;;;-0.09;98.55;98951.63;4980252;28;20229;-44
2024/01/15 08:44:51;;;;;;;0.82;0.57;;;;;;;-0.02;97.99;98959.34;4982821;28;20210;-46
2024/01/15 08:47:17;;;;;;;3.65;0.82;;;;;;;-0.12;97.46;98947.31;4979063;28;20186;-46
2024/01/15 08:49:45;;;;;;;4.70;1.23;;;;;;;-0.11;97.20;98959.56;4979050;28;20198;-45
2024/01/15 08:52:10;;;;;;;3.03;0.88;;;;;;;-0.06;97.31;98960.31;4978376;28;20205;-45
2024/01/15 08:54:36;;;;;;;4.53;1.00;;;;;;;-0.06;96.94;98957.69;4979641;28;20205;-44
2024/01/15 08:57:01;;;;;;;2.25;0.77;;;;;;;-0.08;96.72;98970.00;4979545;28;20186;-47
2024/01/15 08:59:27;;;;;;;2.72;0.50;;;;;;;0.02;96.60;98975.03;4978459;28;20598;-46
2024/01/15 09:01:53;;;;;;;3.90;0.68;;;;;;;-0.13;96.56;98971.91;4978544;28;20186;-46
2024/01/15 09:04:19;;;;;;;2.33;0.80;;;;;;;-0.21;96.53;98974.72;4979051;28;20318;-45
2024/01/15 09:06:48;;;;;;;0.85;0.60;;;;;;;-0.23;96.31;98979.16;4974825;28;20194;-43
2024/01/15 09:09:16;;;;;;;2.67;0.50;;;;;;;-0.28;96.13;98988.06;4976739;28;20221;-45
2024/01/15 09:11:42;;;;;;;1.50;0.80;;;;;;;-0.31;96.09;98988.97;4980418;28;20236;-46
2024/01/15 09:14:09;;;;;;;4.57;0.80;;;;;;;-0.29;96.07;98996.84;4979098;28;20279;-46
2024/01/15 09:16:35;;;;;;;1.02;0.75;;;;;;;-0.32;95.75;98996.94;4980305;28;21012;-47
2024/01/15 09:19:00;;;;;;;5.32;1.00;;;;;;;-0.34;96.01;98990.84;4979723;28;20197;-46
2024/01/15 09:21:26;;;;;;;3.20;0.80;;;;;;;-0.32;95.95;98999.56;4985743;28;20956;-43
2024/01/15 09:23:51;;;;;;;2.42;0.68;;;;;;;-0.27;96.39;99005.56;4975034;28;20217;-45
2024/01/15 09:26:17;;;;;;;3.33;1.05;;;;;;;-0.28;95.59;99009.97;4972826;28;20392;-44
2024/01/15 09:28:43;;;;;;;6.60;0.90;;;;;;;-0.23;95.61;99015.13;4979538;28;20208;-46
2024/01/15 09:31:08;;;;;;;2.28;0.82;;;;;;;-0.14;95.91;99024.56;4978495;28;20723;-46
2024/01/15 09:33:34;;;;;;;3.33;1.00;;;;;;;0.02;95.31;99031.19;4979759;28;20267;-45
2024/01/15 09:36:03;;;;;;;4.57;0.80;;;;;;;-0.05;94.72;99027.84;4974550;28;20210;-47
2024/01/15 09:38:30;;;;;;;3.47;0.88;;;;;;;-0.08;95.19;99037.59;4975592;28;20268;-46
2024/01/15 09:40:55;;;;;;;3.78;1.33;;;;;;;-0.09;94.76;99036.75;4985512;28;20287;-44
2024/01/15 09:43:22;;;;;;;3.05;0.70;;;;;;;-0.24;94.20;99050.22;4984183;28;20269;-45
2024/01/15 09:45:49;;;;;;;5.72;0.73;;;;;;;-0.24;93.80;99052.84;4977915;28;20704;-47
2024/01/15 09:48:15;;;;;;;3.03;0.60;;;;;;;-0.08;93.83;99050.75;4980753;28;20185;-44
2024/01/15 09:50:40;;;;;;;4.63;0.80;;;;;;;-0.02;94.23;99048.84;4987995;28;20613;-46
2024/01/15 09:53:06;;;;;;;0.60;0.60;;;;;;;0.18;94.20;99058.88;4985263;28;20233;-46
2024/01/15 09:55:35;;;;;;;3.45;0.80;;;;;;;0.24;93.39;99049.97;4982915;28;20555;-46
2024/01/15 09:58:03;;;;;;;5.20;1.20;;;;;;;0.14;92.16;99059.00;4982409;28;20655;-45
2024/01/15 10:00:31;;;;;;;1.88;0.70;;;;;;;0.11;91.54;99048.53;4985137;28;20232;-46
2024/01/15 10:02:56;;;;;;;3.92;0.95;;;;;;;0.40;91.85;99039.91;4978378;28;20187;-45
2024/01/15 10:05:22;;;;;;;3.92;0.68;;;;;;;0.55;91.58;99038.66;4981136;28;20201;-46
2024/01/15 10:07:52;;;;;;;2.58;0.70;;;;;;;0.45;91.08;99032.75;4981946;28;20193;-43
2024/01/15 10:10:17;;;;;;;1.95;0.70;;;;;;;0.59;90.46;99029.72;4986141;28;20230;-46
2024/01/15 10:12:43;;;;;;;1.20;0.75;;;;;;;0.43;90.02;99020.53;4983000;28;20680;-45
2024/01/15 10:15:12;;;;;;;2.25;0.85;;;;;;;0.16;89.46;99042.25;4980869;28;20216;-44
2024/01/15 10:17:38;;;;;;;4.13;0.90;;;;;;;0.08;89.04;99028.41;4982742;28;20194;-44
2024/01/15 10:20:11;;;;;;;1.25;0.90;;;;;;;0.35;88.93;99020.72;4979398;28;20184;-46
2024/01/15 10:22:40;;;;;;;2.75;1.10;;;;;;;0.41;88.97;99015.28;4982113;28;20610;-46
2024/01/15 10:25:06;;;;;;;10.10;1.42;;;;;;;0.34;88.69;99019.84;4981061;28;20461;-46
2024/01/15 10:27:31;;;;;;;8.68;1.15;;;;;;;0.22;88.58;99014.91;4983092;28;20194;-46
2024/01/15 10:30:00;;;;;;;2.70;1.00;;;;;;;-0.01;88.09;99023.38;4982221;28;20185;-47
2024/01/15 10:32:26;;;;;;;2.53;0.70;;;;;;;0.00;87.78;99017.22;4983158;28;20220;-47
2024/01/15 10:34:52;;;;;;;4.68;1.10;;;;;;;0.20;88.54;99032.53;4981029;28;20577;-45
2024/01/15 10:37:18;;;;;;;1.95;0.88;;;;;;;0.19;88.53;99030.78;4981820;28;20221;-47
2024/01/15 10:39:45;;;;;;;4.65;0.82;;;;;;;0.10;88.19;99033.66;4982656;28;20244;-45
2024/01/15 10:42:11;;;;;;;2.05;0.77;;;;;;;0.21;88.23;99039.50;4982417;28;20208;-44
2024/01/15 10:44:36;;;;;;;4.15;0.70;;;;;;;0.06;87.99;99038.09;4987956;28;20647;-46
2024/01/15 10:47:02;;;;;;;2.13;0.50;;;;;;;0.07;88.20;99044.25;4984596;28;20217;-44
2024/01/15 10:49:30;;;;;;;3.72;0.60;;;;;;;0.18;88.17;99056.25;4981974;28;20263;-44
2024/01/15 10:51:56;;;;;;;3.05;0.80;;;;;;;0.20;87.93;99058.84;4982085;28;20198;-46
2024/01/15 10:54:23;;;;;;;4.00;0.88;;;;;;;0.14;88.15;99046.69;4986928;28;20288;-44
2024/01/15 10:56:53;;;;;;;1.83;0.93;;;;;;;0.14;88.24;99056.38;4981991;28;20305;-46
2024/01/15 10:59:22;;;;;;;3.65;1.15;;;;;;;0.23;87.98;99066.66;4982083;28;20193;-47
2024/01/15 11:01:49;;;;;;;2.30;0.70;;;;;;;0.15;88.29;99065.97;4985661;28;20177;-47
2024/01/15 11:04:16;;;;;;;5.20;1.80;;;;;;;0.24;88.28;99076.31;4981830;28;20190;-45
2024/01/15 11:06:45;;;;;;;4.55;1.00;;;;;;;0.21;88.25;99071.09;4985244;28;20204;-46
2024/01/15 11:09:11;;;;;;;3.03;0.85;;;;;;;0.37;88.26;99074.22;4983018;28;20285;-46
2024/01/15 11:11:47;;;;;;;1.48;0.90;;;;;;;0.26;88.45;99071.84;4978579;28;20566;-44
2024/01/15 11:14:38;;;;;;;3.38;0.80;;;;;;;0.13;88.13;99070.41;4977544;28;20280;-43
2024/01/15 11:17:05;;;;;;;5.88;1.10;;;;;;;0.27;88.99;99076.22;4984520;28;20201;-45
2024/01/15 11:19:39;;;;;;;2.53;0.60;;;;;;;0.08;88.75;99075.81;4983510;28;20572;-44
2024/01/15 11:22:07;;;;;;;2.53;0.77;;;;;;;0.23;89.28;99089.50;4981598;28;20250;-46
2024/01/15 11:24:38;;;;;;;4.50;1.00;;;;;;;0.18;88.80;99079.97;4978841;28;20206;-46
2024/01/15 11:27:05;;;;;;;2.53;0.80;;;;;;;0.06;88.26;99082.00;4983648;28;20193;-45